Time;durP1;ratioP1;P1;durP2;ratioP2;P2;SDS_P1;SDS_P2;PMS_P1;PMS_P2;Temp;Humidity;BMP_temperature;BMP_pressure;BME280_temperature;BME280_humidity;BME280_pressure;Samples;Min_cycle;Max_cycle;Signal;HPM_P1;HPM_P2
2021/11/24 00:00:03;;;;;;;21.43;10.53;;;4.40;99.90;;;;;;5054195;28;20057;-67
2021/11/24 00:02:30;;;;;;;21.77;10.77;;;4.40;99.90;;;;;;5054188;28;20052;-67
2021/11/24 00:04:57;;;;;;;22.42;9.98;;;4.50;99.90;;;;;;5052544;28;20102;-68
2021/11/24 00:07:24;;;;;;;23.13;10.70;;;4.40;99.90;;;;;;5054267;28;20045;-68
2021/11/24 00:09:51;;;;;;;23.20;11.17;;;4.50;99.90;;;;;;5053493;28;20452;-67
2021/11/24 00:12:20;;;;;;;22.17;10.30;;;4.50;99.90;;;;;;5053411;28;20056;-68
2021/11/24 00:14:47;;;;;;;21.95;9.80;;;4.50;99.90;;;;;;5053107;28;20059;-67
2021/11/24 00:17:16;;;;;;;24.00;11.20;;;4.40;99.90;;;;;;5053434;28;20061;-67
2021/11/24 00:19:43;;;;;;;23.30;11.23;;;4.40;99.90;;;;;;5053916;28;20049;-67
2021/11/24 00:22:11;;;;;;;20.70;10.00;;;4.40;99.90;;;;;;5053017;28;20433;-67
2021/11/24 00:24:38;;;;;;;22.73;10.77;;;4.40;99.90;;;;;;5053648;28;20098;-68
2021/11/24 00:27:05;;;;;;;20.70;9.43;;;4.40;99.90;;;;;;5053322;28;20056;-67
2021/11/24 00:29:33;;;;;;;21.42;11.20;;;4.40;99.90;;;;;;5053830;28;20072;-68
2021/11/24 00:32:00;;;;;;;22.40;10.43;;;4.40;99.90;;;;;;5053653;28;20417;-67
2021/11/24 00:34:27;;;;;;;20.65;9.93;;;4.40;99.90;;;;;;5053917;28;20049;-68
2021/11/24 00:36:55;;;;;;;20.13;11.55;;;4.40;99.90;;;;;;5052612;28;20044;-67
2021/11/24 00:39:22;;;;;;;20.65;10.30;;;4.50;99.90;;;;;;5052998;28;20083;-67
2021/11/24 00:41:49;;;;;;;21.25;10.55;;;4.50;99.90;;;;;;5053592;28;20547;-67
2021/11/24 00:44:17;;;;;;;19.40;10.23;;;4.40;99.90;;;;;;5053024;28;20048;-67
2021/11/24 00:46:46;;;;;;;22.27;10.67;;;4.40;99.90;;;;;;5052216;28;20056;-67
2021/11/24 00:49:13;;;;;;;21.98;10.68;;;4.50;99.90;;;;;;5053193;28;20068;-67
2021/11/24 00:51:40;;;;;;;24.45;11.27;;;4.50;99.90;;;;;;5053202;28;20049;-68
2021/11/24 00:54:07;;;;;;;22.30;11.02;;;4.50;99.90;;;;;;5052761;28;20097;-67
2021/11/24 00:56:36;;;;;;;24.85;11.25;;;4.50;99.90;;;;;;5051775;28;20111;-70
2021/11/24 00:59:03;;;;;;;19.67;10.75;;;4.40;99.90;;;;;;5053636;28;20055;-67
2021/11/24 01:01:31;;;;;;;21.33;10.45;;;4.50;99.90;;;;;;5052770;28;20193;-68
2021/11/24 01:04:00;;;;;;;22.93;11.43;;;4.40;99.90;;;;;;5052887;28;20048;-68
2021/11/24 01:06:27;;;;;;;26.48;11.80;;;4.50;99.90;;;;;;5051622;28;20045;-68
2021/11/24 01:08:55;;;;;;;22.73;11.45;;;4.40;99.90;;;;;;5052805;28;20539;-68
2021/11/24 01:11:22;;;;;;;22.47;11.13;;;4.40;99.90;;;;;;5052813;28;20053;-67
2021/11/24 01:13:50;;;;;;;23.37;11.73;;;4.40;99.90;;;;;;5052499;28;20056;-67
2021/11/24 01:16:17;;;;;;;25.42;11.65;;;4.40;99.90;;;;;;5051697;28;20053;-67
2021/11/24 01:18:44;;;;;;;23.48;12.05;;;4.40;99.90;;;;;;5052338;28;20107;-67
2021/11/24 01:21:12;;;;;;;29.25;13.15;;;4.40;99.90;;;;;;5052956;28;20056;-68
2021/11/24 01:23:39;;;;;;;27.73;12.55;;;4.40;99.90;;;;;;5052119;28;20053;-68
2021/11/24 01:26:07;;;;;;;28.42;13.23;;;4.40;99.90;;;;;;5051351;28;20114;-71
2021/11/24 01:28:34;;;;;;;27.17;12.45;;;4.40;99.90;;;;;;5052690;28;20053;-67
2021/11/24 01:31:01;;;;;;;26.38;12.63;;;4.40;99.90;;;;;;5052048;28;20513;-67
2021/11/24 01:33:28;;;;;;;30.10;13.57;;;4.50;99.90;;;;;;5052388;28;20407;-67
2021/11/24 01:35:56;;;;;;;31.40;13.75;;;4.50;99.90;;;;;;5051173;28;20130;-68
2021/11/24 01:38:24;;;;;;;28.03;13.80;;;4.50;99.90;;;;;;5052344;28;20083;-68
2021/11/24 01:40:52;;;;;;;28.20;14.10;;;4.40;99.90;;;;;;5052428;28;20103;-68
2021/11/24 01:43:19;;;;;;;26.30;13.48;;;4.50;99.90;;;;;;5052260;28;20060;-68
2021/11/24 01:45:47;;;;;;;29.40;14.10;;;4.50;99.90;;;;;;5051460;28;20056;-67
2021/11/24 01:48:14;;;;;;;28.83;14.18;;;4.40;99.90;;;;;;5051912;28;20543;-69
2021/11/24 01:50:41;;;;;;;29.83;14.37;;;4.40;99.90;;;;;;5051489;28;20049;-68
2021/11/24 01:53:08;;;;;;;27.00;13.43;;;4.40;99.90;;;;;;5051920;28;20471;-67
2021/11/24 01:55:37;;;;;;;28.13;14.57;;;4.40;99.90;;;;;;5050748;28;20048;-67
2021/11/24 01:58:04;;;;;;;28.93;14.10;;;4.50;99.90;;;;;;5051861;28;20049;-68
2021/11/24 02:00:33;;;;;;;28.48;14.48;;;4.50;99.90;;;;;;5051869;28;20052;-67
2021/11/24 02:03:02;;;;;;;27.95;13.48;;;4.50;99.90;;;;;;5051739;28;20460;-68
2021/11/24 02:05:29;;;;;;;30.85;14.20;;;4.40;99.90;;;;;;5050428;28;20406;-67
2021/11/24 02:07:56;;;;;;;28.10;14.60;;;4.40;99.90;;;;;;5052111;28;20469;-67
2021/11/24 02:10:24;;;;;;;29.10;14.63;;;4.40;99.90;;;;;;5052056;28;20082;-67
2021/11/24 02:12:53;;;;;;;30.15;14.15;;;4.30;99.90;;;;;;5051616;28;20056;-67
2021/11/24 02:15:21;;;;;;;26.48;13.90;;;4.40;99.90;;;;;;5050545;28;20045;-70
2021/11/24 02:17:48;;;;;;;27.50;14.20;;;4.50;99.90;;;;;;5050205;28;20531;-70
2021/11/24 02:20:17;;;;;;;28.00;14.27;;;4.40;99.90;;;;;;5051606;28;20087;-68
2021/11/24 02:22:45;;;;;;;29.02;13.95;;;4.50;99.90;;;;;;5051437;28;20059;-68
2021/11/24 02:25:12;;;;;;;28.40;13.60;;;4.30;99.90;;;;;;5050908;28;20060;-68
2021/11/24 02:27:39;;;;;;;31.00;15.02;;;4.40;99.90;;;;;;5051964;28;20723;-67
2021/11/24 02:30:07;;;;;;;30.73;14.43;;;4.30;99.90;;;;;;5050955;28;20126;-67
2021/11/24 02:32:34;;;;;;;29.87;15.27;;;4.40;99.90;;;;;;5051298;28;20489;-68
2021/11/24 02:35:01;;;;;;;31.45;15.13;;;4.40;99.90;;;;;;5050650;28;20099;-68
2021/11/24 02:37:30;;;;;;;33.17;15.20;;;4.40;99.90;;;;;;5051866;28;20049;-68
2021/11/24 02:39:57;;;;;;;30.15;14.05;;;4.40;99.90;;;;;;5051485;28;20060;-67
2021/11/24 02:42:24;;;;;;;30.37;14.57;;;4.30;99.90;;;;;;5050749;28;20049;-67
2021/11/24 02:44:51;;;;;;;31.67;14.63;;;4.30;99.90;;;;;;5050915;28;20056;-68
2021/11/24 02:47:21;;;;;;;33.33;15.47;;;4.40;99.90;;;;;;5051627;28;20064;-67
2021/11/24 02:49:51;;;;;;;31.80;13.80;;;4.30;99.90;;;;;;5051285;28;20085;-67
2021/11/24 02:52:19;;;;;;;30.43;14.77;;;4.30;99.90;;;;;;5051164;28;20075;-67
2021/11/24 02:54:52;;;;;;;29.03;14.20;;;4.40;99.90;;;;;;5050364;28;20053;-68
2021/11/24 02:57:20;;;;;;;29.35;14.63;;;4.30;99.90;;;;;;5050989;28;20048;-73
2021/11/24 02:59:47;;;;;;;30.92;14.20;;;4.40;99.90;;;;;;5065276;22;20055;-65
2021/11/24 03:02:14;;;;;;;35.50;16.05;;;4.40;99.90;;;;;;5049500;28;20049;-65
2021/11/24 03:04:42;;;;;;;32.53;15.47;;;4.40;99.90;;;;;;5063999;28;20114;-64
2021/11/24 03:07:09;;;;;;;29.23;14.80;;;4.40;99.90;;;;;;5069395;28;20045;-66
2021/11/24 03:09:36;;;;;;;32.15;14.90;;;4.40;99.90;;;;;;5069197;28;20094;-66
2021/11/24 03:12:05;;;;;;;30.15;14.90;;;4.40;99.90;;;;;;5069064;28;20057;-65
2021/11/24 03:14:32;;;;;;;33.03;15.17;;;4.40;99.90;;;;;;5068731;28;20056;-65
2021/11/24 03:16:59;;;;;;;32.00;14.40;;;4.40;99.90;;;;;;5068237;28;20099;-66
2021/11/24 03:19:26;;;;;;;41.70;17.55;;;4.40;99.90;;;;;;5069164;28;20056;-66
2021/11/24 03:21:53;;;;;;;31.03;15.60;;;4.40;99.90;;;;;;5068881;28;20048;-65
2021/11/24 03:24:20;;;;;;;28.85;14.85;;;4.40;99.90;;;;;;5068867;28;20048;-65
2021/11/24 03:26:47;;;;;;;32.10;16.07;;;4.40;99.90;;;;;;5067769;28;20052;-65
2021/11/24 03:29:16;;;;;;;31.73;15.30;;;4.30;99.90;;;;;;5069218;28;20052;-66
2021/11/24 03:31:43;;;;;;;30.97;14.77;;;4.30;99.90;;;;;;5072305;28;20048;-66
2021/11/24 03:34:10;;;;;;;34.75;15.77;;;4.30;99.90;;;;;;5072282;28;20044;-64
2021/11/24 03:36:38;;;;;;;34.73;15.13;;;4.40;99.90;;;;;;5072238;28;20048;-66
2021/11/24 03:39:06;;;;;;;29.67;15.23;;;4.30;99.90;;;;;;5072656;28;20463;-66
2021/11/24 03:41:33;;;;;;;35.92;15.65;;;4.40;99.90;;;;;;5073001;28;20058;-65
2021/11/24 03:44:00;;;;;;;30.02;14.63;;;4.30;99.90;;;;;;5072663;28;20049;-66
2021/11/24 03:46:29;;;;;;;32.55;15.80;;;4.30;99.90;;;;;;5072236;28;20106;-66
2021/11/24 03:48:56;;;;;;;30.90;15.80;;;4.30;99.90;;;;;;5072491;28;20048;-66
2021/11/24 03:51:23;;;;;;;32.53;15.27;;;4.30;99.90;;;;;;5072316;28;20463;-66
2021/11/24 03:53:51;;;;;;;33.83;15.77;;;4.30;99.90;;;;;;5072172;28;20496;-65
2021/11/24 03:56:18;;;;;;;33.40;14.93;;;4.30;99.90;;;;;;5072098;28;20453;-66
2021/11/24 03:58:45;;;;;;;33.97;16.10;;;4.40;99.90;;;;;;5072737;28;20056;-66
2021/11/24 04:01:13;;;;;;;33.23;15.33;;;4.40;99.90;;;;;;5071882;28;20068;-65
2021/11/24 04:03:42;;;;;;;36.03;15.97;;;4.40;99.90;;;;;;5072530;28;20068;-66
2021/11/24 04:06:09;;;;;;;33.67;15.50;;;4.40;99.90;;;;;;5071346;28;20056;-66
2021/11/24 04:08:36;;;;;;;36.37;16.07;;;4.30;99.90;;;;;;5072081;28;20049;-66
2021/11/24 04:11:03;;;;;;;34.45;16.80;;;4.30;99.90;;;;;;5071851;28;20405;-65
2021/11/24 04:13:30;;;;;;;36.72;15.50;;;4.30;99.90;;;;;;5072348;28;20488;-66
2021/11/24 04:15:57;;;;;;;32.58;16.73;;;4.30;99.90;;;;;;5071410;28;20531;-65
2021/11/24 04:18:24;;;;;;;34.53;15.90;;;4.40;99.90;;;;;;5071465;28;20539;-66
2021/11/24 04:20:55;;;;;;;38.20;17.40;;;4.40;99.90;;;;;;5071522;28;20045;-64
2021/11/24 04:23:23;;;;;;;33.07;16.70;;;4.30;99.90;;;;;;5071673;28;20118;-65
2021/11/24 04:25:50;;;;;;;34.33;16.40;;;4.30;99.90;;;;;;5070699;28;20057;-65
2021/11/24 04:28:17;;;;;;;36.63;15.93;;;4.30;99.90;;;;;;5071286;28;20393;-65
2021/11/24 04:30:44;;;;;;;37.60;17.70;;;4.30;99.90;;;;;;5071671;28;20044;-65
2021/11/24 04:33:11;;;;;;;35.45;16.05;;;4.30;99.90;;;;;;5071136;28;20048;-66
2021/11/24 04:35:39;;;;;;;38.25;16.13;;;4.30;99.90;;;;;;5070217;28;20107;-65
2021/11/24 04:38:08;;;;;;;34.67;16.37;;;4.40;99.90;;;;;;5071472;28;20110;-66
2021/11/24 04:40:35;;;;;;;39.20;16.60;;;4.40;99.90;;;;;;5070560;28;20060;-65
2021/11/24 04:43:05;;;;;;;38.17;17.70;;;4.30;99.90;;;;;;5071869;28;20048;-66
2021/11/24 04:45:32;;;;;;;33.70;15.82;;;4.40;99.90;;;;;;5071189;28;20048;-66
2021/11/24 04:47:59;;;;;;;40.67;17.93;;;4.30;99.90;;;;;;5073240;28;20098;-64
2021/11/24 04:50:26;;;;;;;32.60;16.40;;;4.30;99.90;;;;;;5073760;28;20122;-66
2021/11/24 04:52:53;;;;;;;39.10;16.67;;;4.40;99.90;;;;;;5073420;28;20284;-66
2021/11/24 04:55:22;;;;;;;35.03;17.13;;;4.30;99.90;;;;;;5071235;28;20044;-66
2021/11/24 04:57:49;;;;;;;37.00;16.53;;;4.30;99.90;;;;;;5070824;28;20056;-65
2021/11/24 05:00:19;;;;;;;34.50;17.53;;;4.30;99.90;;;;;;5071107;28;20063;-66
2021/11/24 05:02:48;;;;;;;37.83;16.33;;;4.30;99.90;;;;;;5071361;28;20164;-66
2021/11/24 05:05:16;;;;;;;35.00;15.50;;;4.30;99.90;;;;;;5071953;28;20095;-66
2021/11/24 05:07:43;;;;;;;34.40;15.93;;;4.40;99.90;;;;;;5071251;28;20401;-66
2021/11/24 05:10:10;;;;;;;30.70;15.90;;;4.40;99.90;;;;;;5070894;28;20056;-66
2021/11/24 05:12:39;;;;;;;37.50;16.45;;;4.40;99.90;;;;;;5070711;28;20106;-66
2021/11/24 05:15:09;;;;;;;37.83;16.80;;;4.30;99.90;;;;;;5070038;28;20174;-66
2021/11/24 05:17:38;;;;;;;34.40;15.93;;;4.30;99.90;;;;;;5071462;28;20056;-66
2021/11/24 05:20:06;;;;;;;34.00;15.50;;;4.30;99.90;;;;;;5071407;28;20447;-66
2021/11/24 05:22:33;;;;;;;37.00;16.17;;;4.30;99.90;;;;;;5070419;28;20500;-66
2021/11/24 05:25:00;;;;;;;38.83;15.97;;;4.30;99.90;;;;;;5070156;28;20122;-66
2021/11/24 05:27:27;;;;;;;37.87;16.50;;;4.30;99.90;;;;;;5070362;28;20079;-65
2021/11/24 05:29:56;;;;;;;34.60;15.87;;;4.30;99.90;;;;;;5069928;28;20056;-65
2021/11/24 05:32:23;;;;;;;33.87;15.67;;;4.30;99.90;;;;;;5069779;28;20520;-65
2021/11/24 05:34:50;;;;;;;34.87;16.53;;;4.30;99.90;;;;;;5069658;28;20060;-66
2021/11/24 05:37:17;;;;;;;36.90;16.10;;;4.30;99.90;;;;;;5069818;28;20496;-64
2021/11/24 05:39:44;;;;;;;36.30;16.23;;;4.30;99.90;;;;;;5069813;28;20052;-66
2021/11/24 05:42:11;;;;;;;34.80;16.10;;;4.30;99.90;;;;;;5069393;28;20061;-66
2021/11/24 05:44:38;;;;;;;32.23;15.17;;;4.30;99.90;;;;;;5070402;28;20102;-65
2021/11/24 05:47:10;;;;;;;41.67;17.92;;;4.30;99.90;;;;;;5070575;28;20056;-66
2021/11/24 05:49:38;;;;;;;29.80;14.95;;;4.30;99.90;;;;;;5070450;28;20052;-65
2021/11/24 05:52:06;;;;;;;33.93;15.73;;;4.30;99.90;;;;;;5069934;28;20128;-66
2021/11/24 05:54:35;;;;;;;30.03;15.60;;;4.30;99.90;;;;;;5070420;28;20468;-65
2021/11/24 05:57:02;;;;;;;34.10;15.83;;;4.30;99.90;;;;;;5069620;28;20063;-66
2021/11/24 05:59:32;;;;;;;33.97;16.20;;;4.30;99.90;;;;;;5069946;28;20126;-66
2021/11/24 06:01:59;;;;;;;41.70;17.70;;;4.30;99.90;;;;;;5070731;28;20055;-65
2021/11/24 06:04:27;;;;;;;33.47;15.77;;;4.30;99.90;;;;;;5070396;28;20058;-66
2021/11/24 06:06:54;;;;;;;35.33;16.47;;;4.40;99.90;;;;;;5069099;28;20479;-66
2021/11/24 06:09:21;;;;;;;36.08;15.57;;;4.30;99.90;;;;;;5069803;28;20044;-66
2021/11/24 06:11:48;;;;;;;32.43;16.60;;;4.30;99.90;;;;;;5070003;28;20048;-65
2021/11/24 06:14:15;;;;;;;38.00;16.07;;;4.30;99.90;;;;;;5069680;28;20095;-65
2021/11/24 06:16:42;;;;;;;41.60;16.00;;;4.40;99.90;;;;;;5069322;28;20060;-66
2021/11/24 06:19:09;;;;;;;34.55;16.02;;;4.30;99.90;;;;;;5070253;28;20202;-66
2021/11/24 06:21:38;;;;;;;37.27;15.00;;;4.20;99.90;;;;;;5070610;28;20045;-65
2021/11/24 06:24:05;;;;;;;28.45;13.73;;;4.30;99.90;;;;;;5070615;28;20130;-66
2021/11/24 06:26:33;;;;;;;29.03;13.57;;;4.20;99.90;;;;;;5070363;28;20055;-65
2021/11/24 06:29:00;;;;;;;27.58;12.27;;;4.20;99.90;;;;;;5070357;28;20059;-65
2021/11/24 06:31:29;;;;;;;24.10;11.27;;;4.20;99.90;;;;;;5070117;28;20467;-65
2021/11/24 06:33:56;;;;;;;23.48;12.02;;;4.20;99.90;;;;;;5069729;28;20461;-66
2021/11/24 06:36:24;;;;;;;25.73;12.23;;;4.10;99.90;;;;;;5069306;28;20496;-66
2021/11/24 06:38:53;;;;;;;29.27;12.03;;;4.20;99.90;;;;;;5069854;28;20148;-66
2021/11/24 06:41:20;;;;;;;25.58;12.32;;;4.20;99.90;;;;;;5069033;28;20420;-65
2021/11/24 06:43:47;;;;;;;27.08;13.13;;;4.10;99.90;;;;;;5069267;28;20048;-66
2021/11/24 06:46:14;;;;;;;31.05;12.85;;;4.10;99.90;;;;;;5069344;28;20056;-64
2021/11/24 06:48:41;;;;;;;25.43;13.00;;;4.10;99.90;;;;;;5069623;28;20045;-65
2021/11/24 06:51:08;;;;;;;27.20;13.57;;;4.00;99.90;;;;;;5069015;28;20424;-65
2021/11/24 06:53:35;;;;;;;25.73;12.27;;;4.00;99.90;;;;;;5069122;28;20056;-65
2021/11/24 06:56:05;;;;;;;24.77;12.00;;;4.10;99.90;;;;;;5070064;28;20078;-65
2021/11/24 06:58:32;;;;;;;30.00;12.37;;;4.00;99.90;;;;;;5070812;28;20049;-66
2021/11/24 07:01:00;;;;;;;27.60;11.50;;;4.00;99.90;;;;;;5070432;28;20287;-66
2021/11/24 07:03:27;;;;;;;24.80;11.48;;;4.00;99.90;;;;;;5070092;28;20060;-66
2021/11/24 07:05:54;;;;;;;24.57;11.90;;;4.00;99.90;;;;;;5072980;28;20500;-65
2021/11/24 07:08:21;;;;;;;27.53;12.73;;;4.00;99.90;;;;;;5073564;28;20052;-66
2021/11/24 07:10:48;;;;;;;27.13;11.93;;;4.10;99.90;;;;;;5073061;28;20131;-66
2021/11/24 07:13:17;;;;;;;22.67;11.43;;;4.10;99.90;;;;;;5073115;28;20064;-66
2021/11/24 07:15:44;;;;;;;25.90;12.05;;;4.10;99.90;;;;;;5073124;28;20044;-64
2021/11/24 07:18:11;;;;;;;23.88;11.48;;;4.10;99.90;;;;;;5072864;28;20052;-66
2021/11/24 07:20:38;;;;;;;28.63;12.20;;;4.10;99.90;;;;;;5073286;28;20051;-66
2021/11/24 07:23:05;;;;;;;23.85;11.52;;;4.20;99.90;;;;;;5073143;28;20083;-66
2021/11/24 07:25:32;;;;;;;27.33;14.00;;;4.20;99.90;;;;;;5072475;28;20075;-66
2021/11/24 07:27:59;;;;;;;30.23;13.83;;;4.20;99.90;;;;;;5074114;28;20091;-65
2021/11/24 07:30:28;;;;;;;37.63;16.05;;;4.20;99.90;;;;;;5073490;28;20048;-66
2021/11/24 07:32:55;;;;;;;43.28;17.85;;;4.40;99.90;;;;;;5072547;28;20052;-64
2021/11/24 07:35:22;;;;;;;36.13;15.97;;;4.40;99.90;;;;;;5071765;28;20114;-66
2021/11/24 07:37:50;;;;;;;48.47;20.33;;;4.40;99.90;;;;;;5072792;28;20049;-65
2021/11/24 07:40:18;;;;;;;41.57;18.03;;;4.40;99.90;;;;;;5073967;28;20048;-66
2021/11/24 07:42:45;;;;;;;40.65;15.93;;;4.50;99.90;;;;;;5073306;28;20056;-66
2021/11/24 07:45:12;;;;;;;31.70;15.35;;;4.40;99.90;;;;;;5071934;28;20052;-65
2021/11/24 07:47:41;;;;;;;31.15;14.52;;;4.30;99.90;;;;;;5073093;28;20048;-66
2021/11/24 07:50:08;;;;;;;27.98;12.85;;;4.30;99.90;;;;;;5072682;28;20098;-66
2021/11/24 07:52:35;;;;;;;30.03;13.87;;;4.30;99.90;;;;;;5072976;28;20151;-66
2021/11/24 07:55:03;;;;;;;25.40;12.85;;;4.30;99.90;;;;;;5071984;28;20052;-66
2021/11/24 07:57:30;;;;;;;26.30;12.90;;;4.30;99.90;;;;;;5072352;28;20056;-66
2021/11/24 07:59:57;;;;;;;30.85;13.77;;;4.40;99.90;;;;;;5071905;28;20428;-66
2021/11/24 08:02:24;;;;;;;27.10;13.75;;;4.40;99.90;;;;;;5072130;28;20045;-66
2021/11/24 08:04:53;;;;;;;26.60;14.00;;;4.50;99.90;;;;;;5071335;28;20048;-66
2021/11/24 08:07:20;;;;;;;28.55;13.85;;;4.60;99.90;;;;;;5072001;28;20048;-66
2021/11/24 08:09:47;;;;;;;33.53;14.38;;;4.70;99.90;;;;;;5071941;28;20053;-66
2021/11/24 08:12:14;;;;;;;31.20;13.23;;;4.80;99.90;;;;;;5072446;28;20447;-65
2021/11/24 08:14:41;;;;;;;29.77;12.20;;;4.70;99.90;;;;;;5071304;28;20102;-64
2021/11/24 08:17:08;;;;;;;26.98;13.57;;;4.60;99.90;;;;;;5071569;28;20107;-65
2021/11/24 08:19:35;;;;;;;32.38;13.40;;;4.70;99.90;;;;;;5071693;28;20056;-65
2021/11/24 08:22:04;;;;;;;34.55;14.43;;;4.90;99.90;;;;;;5071675;28;20052;-66
2021/11/24 08:24:31;;;;;;;27.70;12.82;;;4.90;99.90;;;;;;5071296;28;20048;-65
2021/11/24 08:26:58;;;;;;;28.08;12.98;;;4.90;99.90;;;;;;5070785;28;20138;-66
2021/11/24 08:29:25;;;;;;;28.17;13.45;;;5.10;99.90;;;;;;5071476;28;20197;-64
2021/11/24 08:31:52;;;;;;;34.10;13.13;;;5.10;99.90;;;;;;5071377;28;20170;-66
2021/11/24 08:34:20;;;;;;;27.55;13.43;;;5.10;99.90;;;;;;5071331;28;20055;-66
2021/11/24 08:36:49;;;;;;;28.48;13.48;;;5.20;99.90;;;;;;5070536;28;20416;-66
2021/11/24 08:39:18;;;;;;;34.35;14.23;;;5.20;99.90;;;;;;5070827;28;20048;-66
2021/11/24 08:41:46;;;;;;;31.75;13.23;;;5.20;99.90;;;;;;5071310;28;20117;-66
2021/11/24 08:44:14;;;;;;;27.75;12.75;;;5.30;99.90;;;;;;5071532;28;20061;-66
2021/11/24 08:46:41;;;;;;;34.15;13.18;;;5.40;99.90;;;;;;5070473;28;20136;-66
2021/11/24 08:49:09;;;;;;;31.83;13.10;;;5.30;99.90;;;;;;5071064;28;20044;-66
2021/11/24 08:51:38;;;;;;;25.60;12.98;;;5.40;99.90;;;;;;5070996;28;20053;-65
2021/11/24 08:54:05;;;;;;;29.70;13.55;;;5.50;99.90;;;;;;5070659;28;20507;-66
2021/11/24 08:56:35;;;;;;;32.63;13.57;;;5.50;99.90;;;;;;5070259;28;20524;-66
2021/11/24 08:59:04;;;;;;;32.97;12.57;;;5.60;99.90;;;;;;5071215;28;20091;-66
2021/11/24 11:21:42;;;;;;;6.50;2.63;;;16.40;99.90;;;;;;5035120;28;20109;-90
2021/11/24 11:24:09;;;;;;;4.40;1.73;;;18.80;99.60;;;;;;5033809;28;20561;-89
2021/11/24 11:26:36;;;;;;;4.82;1.70;;;15.10;98.40;;;;;;5032249;28;20128;-91
2021/11/24 11:29:03;;;;;;;3.40;1.90;;;13.20;99.90;;;;;;5033659;28;20088;-89
2021/11/24 11:31:32;;;;;;;2.75;1.50;;;11.60;99.90;;;;;;5032756;28;20426;-89
2021/11/24 11:34:01;;;;;;;4.57;1.77;;;10.80;99.90;;;;;;5033677;28;20132;-90
2021/11/24 11:36:28;;;;;;;5.57;1.80;;;10.10;99.90;;;;;;5032180;28;20077;-90
2021/11/24 11:38:58;;;;;;;4.72;2.20;;;9.80;99.90;;;;;;5031951;28;20470;-92
2021/11/24 11:41:30;;;;;;;4.82;2.20;;;9.40;99.90;;;;;;5023962;28;20049;-90
2021/11/24 11:43:58;;;;;;;6.78;2.10;;;9.20;99.90;;;;;;5031961;28;20073;-90
2021/11/24 11:46:29;;;;;;;4.65;2.05;;;9.20;99.90;;;;;;5031743;28;20142;-90
2021/11/24 11:48:57;;;;;;;4.43;2.30;;;9.10;99.90;;;;;;5033006;28;20049;-91
2021/11/24 11:51:36;;;;;;;4.55;1.90;;;9.50;99.90;;;;;;5025853;28;20189;-92
2021/11/24 11:54:06;;;;;;;4.32;2.03;;;9.30;99.90;;;;;;5034103;28;20069;-90
2021/11/24 11:56:35;;;;;;;3.95;1.88;;;9.90;99.90;;;;;;5031668;28;20049;-90
2021/11/24 11:59:05;;;;;;;2.50;1.60;;;10.00;99.90;;;;;;5032609;28;20049;-91
2021/11/24 12:01:34;;;;;;;4.72;1.55;;;9.40;99.90;;;;;;5014410;28;20711;-89
2021/11/24 12:04:14;;;;;;;2.75;1.48;;;10.30;99.90;;;;;;5016787;28;20081;-90
2021/11/24 12:10:13;;;;;;;2.92;1.25;;;12.10;99.90;;;;;;5013120;28;20113;-92
2021/11/24 12:12:40;;;;;;;2.88;1.50;;;13.10;99.90;;;;;;5011817;28;20136;-90
2021/11/24 12:15:16;;;;;;;2.92;1.38;;;12.50;99.90;;;;;;5010956;28;20179;-90
2021/11/24 12:17:48;;;;;;;2.90;1.45;;;11.00;99.90;;;;;;5011855;28;20049;-89
2021/11/24 12:20:41;;;;;;;2.85;1.60;;;12.80;99.90;;;;;;5012129;28;20057;-89
2021/11/24 12:23:28;;;;;;;3.53;1.67;;;16.00;99.90;;;;;;5011566;28;20070;-89
2021/11/24 12:26:01;;;;;;;3.67;1.55;;;17.20;98.90;;;;;;5007429;28;20581;-89
2021/11/24 12:28:46;;;;;;;3.42;1.60;;;17.70;97.40;;;;;;5011261;28;20090;-89
2021/11/24 12:31:19;;;;;;;4.30;1.80;;;15.20;99.90;;;;;;5010407;28;20512;-89
2021/11/24 12:33:53;;;;;;;4.05;1.80;;;15.40;99.00;;;;;;5009974;28;20517;-89
2021/11/24 12:36:39;;;;;;;2.95;1.70;;;12.50;99.90;;;;;;5011706;28;20172;-89
2021/11/24 12:42:28;;;;;;;3.53;1.40;;;11.40;99.90;;;;;;5011732;28;20433;-89
2021/11/24 12:44:56;;;;;;;2.50;1.50;;;11.50;99.90;;;;;;5011057;28;20053;-91
2021/11/24 12:47:23;;;;;;;3.85;1.85;;;13.70;99.90;;;;;;5012003;28;20145;-89
2021/11/24 12:49:50;;;;;;;3.03;1.52;;;12.70;99.90;;;;;;5012145;28;20470;-90
2021/11/24 12:52:19;;;;;;;3.72;1.58;;;11.10;99.90;;;;;;5011274;28;20050;-89
2021/11/24 12:54:48;;;;;;;2.95;1.40;;;10.00;99.90;;;;;;5011217;28;20046;-89
2021/11/24 12:57:15;;;;;;;4.40;1.90;;;9.60;99.90;;;;;;5011741;28;20108;-90
2021/11/24 12:59:43;;;;;;;4.22;1.73;;;10.00;99.90;;;;;;5012728;28;20468;-90
2021/11/24 13:02:12;;;;;;;4.60;1.92;;;10.70;99.90;;;;;;5015755;28;20475;-92
2021/11/24 13:04:46;;;;;;;4.22;1.50;;;9.50;99.90;;;;;;5023608;28;20050;-92
2021/11/24 13:07:19;;;;;;;3.03;1.65;;;9.40;99.90;;;;;;5020128;28;20116;-92
2021/11/24 13:09:53;;;;;;;4.38;2.03;;;10.90;99.90;;;;;;5021458;28;20065;-90
2021/11/24 13:26:06;;;;;;;4.10;1.75;;;11.20;99.90;;;;;;5012067;28;20068;-89
2021/11/24 13:28:33;;;;;;;4.45;2.10;;;9.80;99.90;;;;;;5008961;28;20077;-91
2021/11/24 13:31:00;;;;;;;5.80;2.33;;;9.90;99.90;;;;;;5007801;28;20061;-90
2021/11/24 13:33:28;;;;;;;5.32;1.80;;;9.80;99.90;;;;;;5007467;28;20101;-91
2021/11/24 15:02:28;;;;;;;8.25;4.30;;;6.00;99.90;;;;;;5074063;22;20106;-64
2021/11/24 15:04:55;;;;;;;8.20;4.07;;;5.90;99.90;;;;;;5031872;28;20057;-64
2021/11/24 15:07:22;;;;;;;8.50;4.15;;;5.80;99.90;;;;;;5029630;28;20045;-64
2021/11/24 15:09:49;;;;;;;9.00;4.85;;;5.70;99.90;;;;;;5031179;28;20087;-63
2021/11/24 15:12:17;;;;;;;12.05;5.13;;;5.60;99.90;;;;;;5042855;28;20099;-63
2021/11/24 15:14:44;;;;;;;9.20;4.60;;;5.60;99.90;;;;;;5033004;28;20104;-64
2021/11/24 15:17:11;;;;;;;7.50;4.20;;;5.50;99.90;;;;;;5029403;28;20501;-63
2021/11/24 15:19:39;;;;;;;10.93;4.88;;;5.60;99.90;;;;;;5029392;28;20045;-64
2021/11/24 15:22:06;;;;;;;11.32;5.00;;;5.50;99.90;;;;;;5029249;28;20054;-64
2021/11/24 15:24:33;;;;;;;10.60;5.25;;;5.50;99.90;;;;;;5028818;28;20137;-64
2021/11/24 15:27:00;;;;;;;9.23;4.70;;;5.60;99.90;;;;;;5031775;28;20390;-64
2021/11/24 15:29:28;;;;;;;7.97;4.63;;;5.60;99.90;;;;;;5033041;28;20104;-63
2021/11/24 15:31:56;;;;;;;8.50;4.70;;;5.60;99.90;;;;;;5032361;28;20132;-64
2021/11/24 15:34:23;;;;;;;9.40;4.80;;;5.70;99.90;;;;;;5032432;28;20050;-64
2021/11/24 15:36:53;;;;;;;8.40;4.63;;;5.70;99.90;;;;;;5032431;28;20060;-64
2021/11/24 15:39:21;;;;;;;9.80;5.13;;;5.70;99.90;;;;;;5032472;28;20054;-64
2021/11/24 15:41:49;;;;;;;9.18;4.45;;;5.70;99.90;;;;;;5032913;28;20091;-63
2021/11/24 15:44:16;;;;;;;9.90;5.22;;;5.70;99.90;;;;;;5032970;28;20128;-64
2021/11/24 15:46:43;;;;;;;8.73;4.63;;;5.70;99.90;;;;;;5032250;28;20107;-64
2021/11/24 15:49:10;;;;;;;11.05;4.57;;;5.60;99.90;;;;;;5032568;28;20049;-64
2021/11/24 15:51:37;;;;;;;10.88;5.40;;;5.70;99.90;;;;;;5032801;28;20058;-64
2021/11/24 15:54:06;;;;;;;9.88;5.93;;;5.60;99.90;;;;;;5032263;28;20041;-64
2021/11/24 15:56:33;;;;;;;11.20;5.63;;;5.60;99.90;;;;;;5032450;28;20049;-64
2021/11/24 15:59:02;;;;;;;10.35;5.68;;;5.50;99.90;;;;;;5032831;28;20398;-64
2021/11/24 16:01:29;;;;;;;10.05;5.47;;;5.60;99.90;;;;;;5041902;28;20147;-65
2021/11/24 16:03:57;;;;;;;11.45;5.82;;;5.60;99.90;;;;;;5052555;28;20056;-63
2021/11/24 16:06:24;;;;;;;15.60;6.00;;;5.60;99.90;;;;;;5052529;28;20221;-65
2021/11/24 16:08:52;;;;;;;12.25;6.25;;;5.50;99.90;;;;;;5052733;28;20147;-65
2021/11/24 16:11:21;;;;;;;14.50;6.68;;;5.50;99.90;;;;;;5052650;28;20049;-64
2021/11/24 16:13:48;;;;;;;12.23;5.65;;;5.50;99.90;;;;;;5051930;28;20519;-65
2021/11/24 16:16:18;;;;;;;12.75;6.80;;;5.50;99.90;;;;;;5051821;28;20123;-65
2021/11/24 16:18:46;;;;;;;13.13;6.35;;;5.50;99.90;;;;;;5052375;28;20083;-64
2021/11/24 16:21:14;;;;;;;11.50;6.05;;;5.40;99.90;;;;;;5052163;28;20327;-65
2021/11/24 16:23:41;;;;;;;12.43;6.07;;;5.40;99.90;;;;;;5051862;28;20052;-65
2021/11/24 16:26:08;;;;;;;12.32;6.72;;;5.40;99.90;;;;;;5051337;28;20053;-65
2021/11/24 16:28:36;;;;;;;12.07;6.00;;;5.40;99.90;;;;;;5051879;28;20519;-65
2021/11/24 16:31:03;;;;;;;13.48;7.25;;;5.40;99.90;;;;;;5051723;28;20044;-65
2021/11/24 16:33:31;;;;;;;15.10;7.15;;;5.40;99.90;;;;;;5052470;28;20079;-65
2021/11/24 16:35:58;;;;;;;16.63;7.68;;;5.40;99.90;;;;;;5051656;28;20072;-65
2021/11/24 16:38:26;;;;;;;15.30;6.75;;;5.40;99.90;;;;;;5050917;28;20098;-65
2021/11/24 16:40:53;;;;;;;13.48;7.03;;;5.30;99.90;;;;;;5051929;28;20468;-65
2021/11/24 16:43:20;;;;;;;15.00;7.57;;;5.20;99.90;;;;;;5051658;28;20049;-65
2021/11/24 16:45:49;;;;;;;23.67;8.60;;;5.10;99.90;;;;;;5055918;28;20114;-65
2021/11/24 16:48:16;;;;;;;20.10;8.70;;;5.00;99.90;;;;;;5055931;28;20497;-65
2021/11/24 16:50:44;;;;;;;19.23;8.80;;;4.90;99.90;;;;;;5051785;28;20061;-64